Time;durP1;ratioP1;P1;durP2;ratioP2;P2;SDS_P1;SDS_P2;PMS_P1;PMS_P2;Temp;Humidity;BMP_temperature;BMP_pressure;BME280_temperature;BME280_humidity;BME280_pressure;Samples;Min_cycle;Max_cycle;Signal;HPM_P1;HPM_P2
2021/11/01 00:00:03;;;;;;;3.73;3.50;;;13.90;99.90;;;;;;5091274;28;20562;-84
2021/11/01 00:02:30;;;;;;;2.90;2.80;;;13.90;99.90;;;;;;5104880;28;20439;-84
2021/11/01 00:04:57;;;;;;;3.30;3.10;;;13.90;99.90;;;;;;5119952;28;20427;-84
2021/11/01 00:07:24;;;;;;;3.00;2.80;;;14.00;99.90;;;;;;5120348;28;20474;-83
2021/11/01 00:09:52;;;;;;;3.23;3.00;;;13.90;99.90;;;;;;5110915;28;20475;-84
2021/11/01 00:12:19;;;;;;;3.20;2.70;;;13.90;99.90;;;;;;5099183;28;20531;-83
2021/11/01 00:14:46;;;;;;;2.30;2.20;;;13.90;99.90;;;;;;5105469;28;20521;-83
2021/11/01 00:17:12;;;;;;;3.00;2.70;;;14.10;99.90;;;;;;5114221;28;20446;-85
2021/11/01 00:19:39;;;;;;;3.03;2.83;;;14.10;99.90;;;;;;5088139;28;20471;-85
2021/11/01 00:22:06;;;;;;;2.73;2.53;;;14.10;99.90;;;;;;5083318;28;20455;-83
2021/11/01 00:24:33;;;;;;;3.97;3.77;;;14.20;99.90;;;;;;5097496;28;20446;-84
2021/11/01 00:27:01;;;;;;;2.30;2.20;;;14.20;99.90;;;;;;5103608;28;20458;-84
2021/11/01 00:29:28;;;;;;;2.60;2.33;;;14.20;99.90;;;;;;5086045;28;20478;-83
2021/11/01 00:31:54;;;;;;;2.70;2.50;;;14.30;99.90;;;;;;5080272;28;20456;-84
2021/11/01 00:34:21;;;;;;;2.33;2.17;;;14.40;99.90;;;;;;5093942;28;20911;-84
2021/11/01 00:36:48;;;;;;;2.97;2.67;;;14.40;99.90;;;;;;5102974;28;20457;-82
2021/11/01 00:39:15;;;;;;;1.87;1.77;;;14.50;99.90;;;;;;5091167;28;20978;-82
2021/11/01 00:41:42;;;;;;;1.57;1.47;;;14.50;99.90;;;;;;5084177;28;20444;-85
2021/11/01 00:44:10;;;;;;;1.53;1.43;;;14.50;99.90;;;;;;5093662;28;20446;-84
2021/11/01 00:46:37;;;;;;;1.27;1.17;;;14.70;99.90;;;;;;5103410;28;20458;-83
2021/11/01 00:49:05;;;;;;;1.57;1.17;;;14.80;99.90;;;;;;5101143;28;20565;-82
2021/11/01 00:51:36;;;;;;;1.50;0.77;;;15.00;99.90;;;;;;5071928;28;20460;-85
2021/11/01 00:54:03;;;;;;;1.00;1.00;;;15.20;99.90;;;;;;5073784;28;20492;-86
2021/11/01 00:56:30;;;;;;;1.00;1.00;;;15.30;99.90;;;;;;5071352;28;20962;-85
2021/11/01 00:58:57;;;;;;;2.23;1.30;;;15.40;99.90;;;;;;5082592;28;20487;-85
2021/11/01 01:01:25;;;;;;;1.33;1.27;;;15.50;99.90;;;;;;5067543;28;20454;-84
2021/11/01 01:03:52;;;;;;;1.43;1.10;;;15.50;99.90;;;;;;5079927;28;20447;-85
2021/11/01 01:06:18;;;;;;;1.77;1.30;;;15.60;99.90;;;;;;5071318;28;20455;-85
2021/11/01 01:08:45;;;;;;;1.23;1.10;;;15.70;99.90;;;;;;5083971;28;20464;-85
2021/11/01 01:11:13;;;;;;;1.10;1.10;;;15.70;99.90;;;;;;5071356;28;20448;-85
2021/11/01 01:13:39;;;;;;;1.27;0.87;;;15.80;99.90;;;;;;5084840;28;20479;-85
2021/11/01 01:16:12;;;;;;;1.20;1.10;;;15.90;99.90;;;;;;5069821;28;20530;-84
2021/11/01 01:18:41;;;;;;;1.07;1.07;;;15.80;99.90;;;;;;5089416;28;20546;-86
2021/11/01 01:23:53;;;;;;;0.70;0.70;;;15.80;99.90;;;;;;5074261;28;20488;-85
2021/11/01 01:26:49;;;;;;;1.30;1.20;;;15.90;99.90;;;;;;5075695;28;20441;-85
2021/11/01 01:29:31;;;;;;;1.40;1.30;;;15.80;99.90;;;;;;5076578;28;20501;-86
2021/11/01 01:32:31;;;;;;;1.00;1.00;;;15.80;99.90;;;;;;5062819;28;20448;-84
2021/11/01 01:38:33;;;;;;;1.00;1.00;;;15.80;99.90;;;;;;5089794;28;20863;-84
2021/11/01 01:49:47;;;;;;;1.73;1.10;;;15.80;99.90;;;;;;5083533;28;20473;-85
2021/11/01 01:52:16;;;;;;;1.00;1.00;;;15.80;99.90;;;;;;5082665;28;20459;-85
2021/11/01 01:54:43;;;;;;;1.00;1.00;;;15.70;99.90;;;;;;5099247;28;20487;-85
2021/11/01 01:57:10;;;;;;;0.90;0.90;;;15.60;99.90;;;;;;5103413;28;20849;-85
2021/11/01 01:59:37;;;;;;;0.77;0.77;;;15.50;99.90;;;;;;5086866;28;20543;-85
2021/11/01 02:02:04;;;;;;;1.30;1.20;;;15.50;99.90;;;;;;5082642;28;20451;-85
2021/11/01 02:04:32;;;;;;;1.90;1.30;;;15.40;99.90;;;;;;5098695;28;20990;-86
2021/11/01 02:07:12;;;;;;;0.80;0.80;;;15.30;99.90;;;;;;5102525;28;20946;-84
2021/11/01 02:10:06;;;;;;;1.20;1.20;;;15.10;99.90;;;;;;5102650;28;20463;-85
2021/11/01 02:12:39;;;;;;;1.50;1.40;;;14.70;99.90;;;;;;5083997;28;20458;-83
2021/11/01 02:15:10;;;;;;;1.40;1.30;;;14.30;99.90;;;;;;5061659;28;20448;-84
2021/11/01 02:17:39;;;;;;;2.20;1.30;;;14.00;99.90;;;;;;5061845;28;20450;-85
2021/11/01 02:20:09;;;;;;;1.97;1.53;;;13.70;99.90;;;;;;5082124;28;20455;-85
2021/11/01 02:22:43;;;;;;;1.50;1.40;;;13.50;99.90;;;;;;5081522;28;20459;-85
2021/11/01 02:25:12;;;;;;;1.43;1.33;;;13.40;99.90;;;;;;5062700;28;20432;-86
2021/11/01 02:27:43;;;;;;;1.30;1.07;;;13.10;99.90;;;;;;5062219;28;20543;-83
2021/11/01 02:30:14;;;;;;;1.20;1.00;;;12.80;99.90;;;;;;5081341;28;20876;-83
2021/11/01 02:32:44;;;;;;;0.97;0.90;;;12.50;99.90;;;;;;5080300;28;20550;-83
2021/11/01 02:35:12;;;;;;;1.20;1.00;;;12.20;99.90;;;;;;5083614;28;20445;-83
2021/11/01 02:37:40;;;;;;;1.50;0.90;;;12.00;99.90;;;;;;5083856;28;20526;-84
2021/11/01 02:40:09;;;;;;;4.67;0.80;;;11.70;99.90;;;;;;5083138;28;20481;-84
2021/11/01 02:42:36;;;;;;;1.00;1.00;;;11.50;99.90;;;;;;5081304;28;20541;-84
2021/11/01 02:45:07;;;;;;;0.80;0.80;;;11.30;99.90;;;;;;5081669;28;20438;-84
2021/11/01 02:47:35;;;;;;;2.20;0.90;;;11.20;99.90;;;;;;5081167;28;20462;-85
2021/11/01 02:50:04;;;;;;;0.63;0.63;;;11.10;99.90;;;;;;5081178;28;20450;-84
2021/11/01 02:52:31;;;;;;;3.00;1.13;;;11.10;99.90;;;;;;5081301;28;20458;-84
2021/11/01 02:54:58;;;;;;;1.80;1.00;;;11.10;99.90;;;;;;5080569;28;20488;-85
2021/11/01 02:57:25;;;;;;;1.70;1.13;;;11.00;99.90;;;;;;5080305;28;20464;-85
2021/11/01 02:59:52;;;;;;;1.70;1.00;;;11.10;99.90;;;;;;5079812;28;20453;-84
2021/11/01 03:02:22;;;;;;;1.37;1.27;;;11.00;99.90;;;;;;5081152;28;20467;-85
2021/11/01 03:04:49;;;;;;;1.50;0.83;;;11.10;99.90;;;;;;5079740;28;21007;-85
2021/11/01 03:07:17;;;;;;;1.00;0.90;;;11.10;99.90;;;;;;5086849;28;20457;-86
2021/11/01 03:09:47;;;;;;;1.10;1.00;;;11.10;99.90;;;;;;5100259;28;20470;-85
2021/11/01 03:12:16;;;;;;;0.80;0.80;;;11.10;99.90;;;;;;5099608;28;20455;-85
2021/11/01 03:14:52;;;;;;;2.47;0.90;;;11.10;99.90;;;;;;5101422;28;20490;-85
2021/11/01 03:17:23;;;;;;;0.80;0.70;;;11.20;99.90;;;;;;5094403;28;20546;-85
2021/11/01 03:19:59;;;;;;;3.70;0.97;;;11.10;99.90;;;;;;5090140;28;20460;-84
2021/11/01 03:22:27;;;;;;;4.30;1.10;;;11.20;99.90;;;;;;5092008;28;20449;-84
2021/11/01 03:25:00;;;;;;;3.20;1.03;;;11.20;99.90;;;;;;5080234;28;20451;-84
2021/11/01 03:27:28;;;;;;;3.03;1.37;;;11.20;99.90;;;;;;5079964;28;20546;-83
2021/11/01 03:29:57;;;;;;;2.30;1.00;;;11.00;99.90;;;;;;5078965;28;20964;-82
2021/11/01 03:32:26;;;;;;;4.60;2.00;;;11.00;99.90;;;;;;5084322;28;20461;-82
2021/11/01 03:34:53;;;;;;;2.40;1.13;;;10.90;99.90;;;;;;5098829;28;20489;-82
2021/11/01 03:37:21;;;;;;;1.50;1.23;;;10.90;99.90;;;;;;5092589;28;20455;-82
2021/11/01 03:39:48;;;;;;;1.17;1.07;;;10.80;99.90;;;;;;5079091;28;20479;-81
2021/11/01 03:42:16;;;;;;;2.37;1.40;;;10.80;99.90;;;;;;5079078;28;20957;-81
2021/11/01 03:44:47;;;;;;;2.43;1.30;;;10.60;99.90;;;;;;5085916;28;20461;-80
2021/11/01 03:47:15;;;;;;;1.60;1.20;;;10.60;99.90;;;;;;5097043;28;20964;-80
2021/11/01 03:49:52;;;;;;;2.90;1.40;;;10.60;99.90;;;;;;5105026;28;20888;-81
2021/11/01 03:52:22;;;;;;;1.73;1.13;;;10.70;99.90;;;;;;5099268;28;20468;-82
2021/11/01 03:54:50;;;;;;;3.00;1.50;;;10.60;99.90;;;;;;5099751;28;20493;-81
2021/11/01 03:57:17;;;;;;;1.87;1.20;;;10.70;99.90;;;;;;5094832;28;20453;-81
2021/11/01 03:59:45;;;;;;;1.00;0.90;;;10.70;99.90;;;;;;5079079;28;20474;-81
2021/11/01 04:02:14;;;;;;;3.30;1.57;;;10.60;99.90;;;;;;5078813;28;20934;-82
2021/11/01 04:04:45;;;;;;;1.43;1.30;;;10.50;99.90;;;;;;5079101;28;20442;-81
2021/11/01 04:07:12;;;;;;;5.33;0.90;;;10.40;99.90;;;;;;5083032;28;20939;-82
2021/11/01 04:09:39;;;;;;;4.07;1.67;;;10.40;99.90;;;;;;5098816;28;20483;-82
2021/11/01 04:12:07;;;;;;;2.33;1.50;;;10.50;99.90;;;;;;5096220;28;20457;-82
2021/11/01 04:14:39;;;;;;;1.83;1.20;;;10.60;99.90;;;;;;5079300;28;20546;-82
2021/11/01 04:17:10;;;;;;;2.63;1.50;;;10.70;99.90;;;;;;5082074;28;20454;-82
2021/11/01 04:19:46;;;;;;;2.03;1.40;;;10.90;99.90;;;;;;5098990;28;20469;-82
2021/11/01 04:22:14;;;;;;;3.20;3.00;;;10.80;99.90;;;;;;5095297;28;21028;-82
2021/11/01 04:24:41;;;;;;;2.00;1.57;;;11.00;99.90;;;;;;5078604;28;20545;-83
2021/11/01 04:27:08;;;;;;;2.37;1.10;;;11.10;99.90;;;;;;5079999;28;20968;-82
2021/11/01 04:29:35;;;;;;;1.10;1.00;;;11.20;99.90;;;;;;5079035;28;20481;-83
2021/11/01 04:32:13;;;;;;;4.83;1.60;;;11.30;99.90;;;;;;5082026;28;20460;-83
2021/11/01 04:34:43;;;;;;;1.40;1.30;;;11.00;99.90;;;;;;5099059;28;20488;-83
2021/11/01 04:37:10;;;;;;;1.50;1.40;;;11.10;99.90;;;;;;5094156;28;20450;-83
2021/11/01 04:39:47;;;;;;;2.87;1.50;;;10.90;99.90;;;;;;5077797;28;20476;-82
2021/11/01 04:53:12;;;;;;;2.40;1.47;;;11.10;99.90;;;;;;5089307;28;20449;-83
2021/11/01 04:55:42;;;;;;;3.60;1.37;;;11.10;99.90;;;;;;5081849;28;20482;-81
2021/11/01 04:58:09;;;;;;;1.60;1.23;;;11.20;99.90;;;;;;5093466;28;20480;-83
2021/11/01 05:00:36;;;;;;;1.83;1.07;;;11.20;99.90;;;;;;5101526;28;20454;-83
2021/11/01 05:03:08;;;;;;;1.50;1.40;;;11.10;99.90;;;;;;5091368;28;20459;-83
2021/11/01 05:05:35;;;;;;;1.97;1.00;;;11.00;99.90;;;;;;5081677;28;20459;-83
2021/11/01 05:08:03;;;;;;;1.83;1.20;;;11.10;99.90;;;;;;5092284;28;20477;-82
2021/11/01 05:10:33;;;;;;;2.77;1.10;;;11.10;99.90;;;;;;5102110;28;20449;-83
2021/11/01 05:13:04;;;;;;;2.53;1.50;;;11.10;99.90;;;;;;5091945;28;20835;-83
2021/11/01 05:15:35;;;;;;;1.03;0.93;;;11.30;99.90;;;;;;5082310;28;20486;-83
2021/11/01 05:18:14;;;;;;;3.60;1.50;;;11.40;99.90;;;;;;5089116;28;20527;-83
2021/11/01 05:20:43;;;;;;;1.87;1.30;;;11.50;99.90;;;;;;5101024;28;20529;-84
2021/11/01 05:23:14;;;;;;;4.03;3.07;;;11.50;99.90;;;;;;5087510;28;20852;-83
2021/11/01 05:25:44;;;;;;;3.20;1.10;;;11.60;99.90;;;;;;5080638;28;20831;-82
2021/11/01 05:28:20;;;;;;;1.63;1.53;;;11.50;99.90;;;;;;5095233;28;20475;-80
2021/11/01 05:30:52;;;;;;;3.17;1.97;;;11.50;99.90;;;;;;5107794;28;20457;-81
2021/11/01 05:36:18;;;;;;;1.90;1.80;;;11.50;99.90;;;;;;5003845;28;20441;-82
2021/11/01 05:38:46;;;;;;;3.33;2.90;;;11.40;99.90;;;;;;5022071;28;20497;-81
2021/11/01 05:41:13;;;;;;;5.17;2.53;;;11.30;99.90;;;;;;5061228;28;20557;-81
2021/11/01 05:43:41;;;;;;;3.03;1.83;;;11.40;99.90;;;;;;5090505;28;20466;-81
2021/11/01 05:46:08;;;;;;;2.57;2.23;;;11.40;99.90;;;;;;5087258;28;20462;-81
2021/11/01 05:48:36;;;;;;;3.77;2.53;;;11.50;99.90;;;;;;5102507;28;20473;-81
2021/11/01 05:51:03;;;;;;;3.63;2.37;;;11.50;99.90;;;;;;5107430;28;20488;-80
2021/11/01 05:53:35;;;;;;;2.83;1.63;;;11.50;99.90;;;;;;5092097;28;20961;-81
2021/11/01 05:56:13;;;;;;;2.33;1.77;;;11.50;99.90;;;;;;5085416;28;20559;-80
2021/11/01 05:58:50;;;;;;;3.17;1.70;;;11.50;99.90;;;;;;5103462;28;20473;-80
2021/11/01 06:01:35;;;;;;;2.30;1.87;;;11.30;99.90;;;;;;5107268;28;20962;-80
2021/11/01 06:04:06;;;;;;;1.60;1.33;;;11.30;99.90;;;;;;5088166;28;20534;-80
2021/11/01 06:06:55;;;;;;;1.67;1.13;;;11.20;99.90;;;;;;5087183;28;20482;-80
2021/11/01 06:09:35;;;;;;;1.73;1.00;;;11.10;99.90;;;;;;5067475;28;20509;-79
2021/11/01 06:14:48;;;;;;;1.33;1.10;;;10.90;99.90;;;;;;5107349;28;21051;-80
2021/11/01 06:17:15;;;;;;;2.13;1.20;;;10.80;99.90;;;;;;5106142;28;20454;-80
2021/11/01 06:19:41;;;;;;;1.83;1.00;;;10.90;99.90;;;;;;5107938;28;20492;-80
2021/11/01 06:22:08;;;;;;;1.30;1.20;;;10.90;99.90;;;;;;5103513;28;20445;-80
2021/11/01 06:24:48;;;;;;;1.97;1.73;;;10.80;99.90;;;;;;5085302;28;20447;-81
2021/11/01 06:27:17;;;;;;;1.23;0.97;;;10.80;99.90;;;;;;5085736;28;20454;-80
2021/11/01 06:32:34;;;;;;;2.17;0.80;;;10.60;99.90;;;;;;5091007;28;20476;-80
2021/11/01 06:40:39;;;;;;;2.63;1.43;;;10.00;99.90;;;;;;5066471;28;20446;-79
2021/11/01 06:43:09;;;;;;;1.60;1.50;;;9.90;99.90;;;;;;5066648;28;20459;-80
2021/11/01 06:45:54;;;;;;;6.80;1.30;;;9.90;99.90;;;;;;5099259;28;20489;-80
2021/11/01 06:51:16;;;;;;;1.50;1.10;;;9.70;99.90;;;;;;5097188;28;20536;-80
2021/11/01 06:54:02;;;;;;;1.48;1.38;;;9.80;99.90;;;;;;5116527;28;20440;-79
2021/11/01 06:56:36;;;;;;;0.70;0.63;;;9.90;99.90;;;;;;5114921;28;20244;-80
2021/11/01 07:15:49;;;;;;;4.70;0.93;;;10.00;99.90;;;;;;5107345;28;20255;-82
2021/11/01 07:18:20;;;;;;;1.67;1.33;;;10.00;99.90;;;;;;5087931;28;20232;-82
2021/11/01 07:21:01;;;;;;;1.30;0.97;;;10.00;99.90;;;;;;5086811;28;20453;-82
2021/11/01 08:21:11;;;;;;;1.42;1.33;;;9.90;99.90;;;;;;5093494;28;20201;-81
2021/11/01 08:24:02;;;;;;;1.90;1.07;;;10.00;99.90;;;;;;5081203;28;20207;-83
2021/11/01 08:48:59;;;;;;;1.42;1.10;;;9.70;99.90;;;;;;5077382;28;20969;-81
2021/11/01 08:51:37;;;;;;;1.33;1.33;;;9.70;99.90;;;;;;5076853;28;20263;-81
2021/11/01 09:02:37;;;;;;;1.07;1.00;;;9.70;99.90;;;;;;5056530;28;20230;-83
2021/11/01 09:08:23;;;;;;;1.07;0.90;;;9.70;99.90;;;;;;5076633;28;20597;-83
2021/11/01 09:22:29;;;;;;;0.93;0.93;;;10.00;99.90;;;;;;5057686;28;20445;-80
2021/11/01 09:25:04;;;;;;;1.97;1.00;;;10.10;99.90;;;;;;5077551;28;20488;-82
2021/11/01 09:27:32;;;;;;;1.08;1.08;;;10.10;99.90;;;;;;5089832;28;20788;-81
2021/11/01 09:30:11;;;;;;;1.10;0.73;;;10.20;99.90;;;;;;5068880;28;20202;-82
2021/11/01 09:35:48;;;;;;;1.17;1.07;;;10.30;99.90;;;;;;5071108;28;21023;-82
2021/11/01 09:38:29;;;;;;;0.70;0.70;;;10.20;99.90;;;;;;5072589;28;20488;-80
2021/11/01 09:41:03;;;;;;;1.03;0.90;;;10.20;99.90;;;;;;5068557;28;20442;-79
2021/11/01 09:43:31;;;;;;;1.80;1.10;;;10.20;99.90;;;;;;5069220;28;20934;-80
2021/11/01 09:46:00;;;;;;;2.10;2.00;;;10.30;99.90;;;;;;5071779;28;20487;-81
2021/11/01 09:48:28;;;;;;;1.33;1.33;;;10.50;99.90;;;;;;5063207;28;20471;-81
2021/11/01 09:50:55;;;;;;;2.10;1.30;;;10.50;99.90;;;;;;5069060;28;20446;-81
2021/11/01 09:53:26;;;;;;;1.00;0.97;;;10.60;99.90;;;;;;5065528;28;20446;-81
2021/11/01 09:56:05;;;;;;;1.33;1.33;;;10.70;99.90;;;;;;5066901;28;20443;-80
2021/11/01 10:01:21;;;;;;;1.80;1.70;;;10.80;99.90;;;;;;5068469;28;20430;-81
2021/11/01 10:03:51;;;;;;;1.90;0.90;;;10.80;99.90;;;;;;5065216;28;20437;-80
2021/11/01 10:06:21;;;;;;;1.60;0.97;;;10.60;99.90;;;;;;5067468;28;20831;-80
2021/11/01 10:08:48;;;;;;;1.60;0.80;;;10.50;99.90;;;;;;5068532;28;20503;-80
2021/11/01 10:11:17;;;;;;;1.43;1.20;;;10.40;99.90;;;;;;5066681;28;20448;-80
2021/11/01 10:13:47;;;;;;;1.90;1.80;;;10.30;99.90;;;;;;5068866;28;20448;-78
2021/11/01 10:19:14;;;;;;;0.80;0.80;;;10.30;99.90;;;;;;5074666;28;20522;-77
2021/11/01 10:21:52;;;;;;;0.97;0.97;;;10.20;99.90;;;;;;5072690;28;20536;-79
2021/11/01 10:24:25;;;;;;;1.02;0.82;;;10.30;99.90;;;;;;5064266;28;20447;-80
2021/11/01 10:26:52;;;;;;;1.77;0.88;;;10.30;99.90;;;;;;5069148;28;20591;-78
2021/11/01 10:29:19;;;;;;;1.00;0.90;;;10.40;99.90;;;;;;5067836;28;20310;-79
2021/11/01 10:31:47;;;;;;;0.80;0.80;;;10.40;99.90;;;;;;5068704;28;20214;-80
2021/11/01 10:34:16;;;;;;;1.57;0.77;;;10.40;99.90;;;;;;5070285;28;20857;-80
2021/11/01 10:36:46;;;;;;;3.43;1.00;;;10.40;99.90;;;;;;5066377;28;20443;-79
2021/11/01 10:39:19;;;;;;;0.77;0.77;;;10.40;99.90;;;;;;5074373;28;20560;-80
2021/11/01 10:41:52;;;;;;;0.80;0.80;;;10.30;99.90;;;;;;5076848;28;20825;-80
2021/11/01 10:45:01;;;;;;;1.03;1.00;;;10.30;99.90;;;;;;5076470;28;20508;-78
2021/11/01 11:12:30;;;;;;;1.30;1.20;;;10.50;99.90;;;;;;5062564;28;20975;-79
2021/11/01 11:15:08;;;;;;;0.90;0.83;;;10.50;99.90;;;;;;5065198;28;20449;-79
2021/11/01 11:17:42;;;;;;;1.25;1.20;;;10.50;99.90;;;;;;5067261;28;20525;-79
2021/11/01 11:26:15;;;;;;;1.40;1.30;;;11.00;99.90;;;;;;5058309;28;20489;-79
2021/11/01 11:29:16;;;;;;;1.20;1.10;;;11.00;99.90;;;;;;5070455;28;20477;-80
2021/11/01 11:48:47;;;;;;;1.23;1.13;;;11.30;99.90;;;;;;5060435;28;20953;-79
2021/11/01 11:51:14;;;;;;;2.60;1.50;;;11.30;99.90;;;;;;5065630;28;20446;-81
2021/11/01 11:53:52;;;;;;;1.70;1.60;;;11.30;99.90;;;;;;5066309;28;20478;-78
2021/11/01 11:56:28;;;;;;;1.63;1.13;;;11.20;99.90;;;;;;5067975;28;20830;-78
2021/11/01 11:58:59;;;;;;;1.27;1.10;;;11.20;99.90;;;;;;5066791;28;20498;-82
2021/11/01 12:01:27;;;;;;;2.10;1.73;;;11.10;99.90;;;;;;5067746;28;20458;-81
2021/11/01 12:03:56;;;;;;;4.13;2.87;;;11.20;99.90;;;;;;5069816;28;20448;-82
2021/11/01 12:06:43;;;;;;;2.90;1.30;;;11.30;99.90;;;;;;5071065;28;20490;-82
2021/11/01 12:09:13;;;;;;;1.27;1.13;;;11.20;99.90;;;;;;5068235;28;20471;-79
2021/11/01 12:12:07;;;;;;;1.60;1.50;;;11.20;99.90;;;;;;5072463;28;20546;-80
2021/11/01 12:14:41;;;;;;;1.70;1.17;;;11.20;99.90;;;;;;5065971;28;20471;-80
2021/11/01 12:17:09;;;;;;;2.50;2.20;;;11.10;99.90;;;;;;5071112;28;20476;-80
2021/11/01 12:19:37;;;;;;;1.30;1.20;;;11.10;99.90;;;;;;5074662;28;20477;-80
2021/11/01 12:22:08;;;;;;;1.10;1.00;;;11.20;99.90;;;;;;5088485;28;20449;-79
2021/11/01 12:24:35;;;;;;;3.37;2.10;;;11.10;99.90;;;;;;5079809;28;21177;-82
2021/11/01 12:27:06;;;;;;;2.30;1.53;;;11.20;99.90;;;;;;5081126;28;20577;-81
2021/11/01 12:29:35;;;;;;;1.40;1.30;;;11.20;99.90;;;;;;5070845;28;20504;-81
2021/11/01 12:32:06;;;;;;;1.83;1.40;;;11.20;99.90;;;;;;5079785;28;20458;-81
2021/11/01 12:34:36;;;;;;;1.33;1.23;;;11.20;99.90;;;;;;5086961;28;20540;-82
2021/11/01 12:37:15;;;;;;;2.00;1.83;;;11.10;99.90;;;;;;5089958;28;20460;-79
2021/11/01 12:39:46;;;;;;;1.50;1.40;;;11.10;99.90;;;;;;5084290;28;20479;-82
2021/11/01 12:59:34;;;;;;;1.27;1.10;;;11.10;99.90;;;;;;5041509;28;20464;-80
2021/11/01 13:02:01;;;;;;;2.03;1.70;;;11.10;99.90;;;;;;5080388;28;20461;-80
2021/11/01 13:04:35;;;;;;;1.97;1.87;;;11.10;99.90;;;;;;5082332;28;20453;-81
2021/11/01 13:07:08;;;;;;;1.30;1.20;;;11.10;99.90;;;;;;5084986;28;20556;-79
2021/11/01 13:09:41;;;;;;;1.10;1.10;;;11.10;99.90;;;;;;5082000;28;20890;-80
2021/11/01 13:12:32;;;;;;;1.80;1.70;;;11.10;99.90;;;;;;5095032;28;20888;-79
2021/11/01 13:17:50;;;;;;;4.03;2.50;;;11.20;99.90;;;;;;5102225;28;20475;-80
2021/11/01 13:18:08;;;;;;;1.83;1.73;;;11.30;99.90;;;;;;5115150;28;20441;-79
2021/11/01 13:20:38;;;;;;;1.70;1.60;;;11.40;99.90;;;;;;5114279;28;20478;-79
2021/11/01 13:23:06;;;;;;;1.33;1.27;;;11.40;99.90;;;;;;5113792;28;20460;-79
2021/11/01 13:25:42;;;;;;;1.70;1.60;;;11.40;99.90;;;;;;5091826;28;20538;-79
2021/11/01 13:37:10;;;;;;;4.33;2.70;;;11.50;99.90;;;;;;5087380;28;20567;-81
2021/11/01 13:39:37;;;;;;;1.60;1.50;;;11.50;99.90;;;;;;5095738;28;20518;-80
2021/11/01 13:42:10;;;;;;;2.23;2.07;;;11.40;99.90;;;;;;5092057;28;20873;-81
2021/11/01 13:44:37;;;;;;;1.70;1.60;;;11.40;99.90;;;;;;5101404;28;20455;-81
2021/11/01 13:47:07;;;;;;;2.93;2.33;;;11.40;99.90;;;;;;5101682;28;20484;-80
2021/11/01 13:49:36;;;;;;;2.27;2.07;;;11.30;99.90;;;;;;5087401;28;20531;-79
2021/11/01 13:52:18;;;;;;;2.00;1.70;;;11.30;99.90;;;;;;5099378;28;20470;-81
2021/11/01 13:54:55;;;;;;;2.17;1.60;;;11.20;99.90;;;;;;5085215;28;21052;-79
2021/11/01 13:57:22;;;;;;;4.53;1.70;;;11.30;99.90;;;;;;5094091;28;20456;-79
2021/11/01 13:59:55;;;;;;;1.93;1.83;;;11.30;99.90;;;;;;5092015;28;20471;-79
2021/11/01 14:11:04;;;;;;;3.30;3.10;;;11.30;99.90;;;;;;5098771;28;20447;-79
2021/11/01 14:13:42;;;;;;;2.80;2.60;;;11.20;99.90;;;;;;5098332;28;20453;-79
2021/11/01 14:16:22;;;;;;;4.30;2.20;;;11.20;99.90;;;;;;5097852;28;20425;-79
2021/11/01 14:19:05;;;;;;;4.23;1.50;;;11.20;99.90;;;;;;5097854;28;21055;-79
2021/11/01 15:19:47;;;;;;;3.83;2.10;;;11.70;99.90;;;;;;5086211;28;20925;-81
2021/11/01 15:22:32;;;;;;;2.20;2.00;;;11.70;99.90;;;;;;5078601;28;20458;-81
2021/11/01 15:33:43;;;;;;;2.20;1.87;;;11.70;99.90;;;;;;5085602;28;20498;-82
2021/11/01 15:36:26;;;;;;;3.23;2.90;;;11.80;99.90;;;;;;5085835;28;20524;-81
2021/11/01 15:39:06;;;;;;;1.97;1.87;;;11.70;99.90;;;;;;5079238;28;20864;-78
2021/11/01 16:17:25;;;;;;;3.03;2.67;;;10.90;99.90;;;;;;5068673;28;20588;-80
2021/11/01 16:19:54;;;;;;;5.00;4.60;;;11.00;99.90;;;;;;5062459;28;20454;-79
2021/11/01 16:22:21;;;;;;;5.40;2.60;;;11.00;99.90;;;;;;5070761;28;20474;-79
2021/11/01 16:24:49;;;;;;;3.00;2.67;;;11.10;99.90;;;;;;5063973;28;20455;-80
2021/11/01 16:27:19;;;;;;;3.20;2.77;;;11.10;99.90;;;;;;5076029;28;20453;-81
2021/11/01 16:29:50;;;;;;;2.97;2.50;;;11.10;99.90;;;;;;5077922;28;20458;-82
2021/11/01 16:32:20;;;;;;;3.00;2.80;;;11.10;99.90;;;;;;5063577;28;20459;-79
2021/11/01 16:34:54;;;;;;;3.47;3.17;;;11.10;99.90;;;;;;5066916;28;20450;-81
2021/11/01 16:37:26;;;;;;;2.93;2.73;;;11.20;99.90;;;;;;5071191;28;21547;-80
2021/11/01 16:39:54;;;;;;;3.60;3.10;;;11.20;99.90;;;;;;5071408;28;20455;-80
2021/11/01 16:42:25;;;;;;;3.67;3.07;;;11.20;99.90;;;;;;5072252;28;20435;-79
2021/11/01 16:44:53;;;;;;;3.60;3.23;;;11.20;99.90;;;;;;5067724;28;20451;-84
2021/11/01 16:47:20;;;;;;;4.30;3.57;;;11.20;99.90;;;;;;5072535;28;20493;-80
2021/11/01 16:49:51;;;;;;;3.77;3.37;;;11.10;99.90;;;;;;5065961;28;21033;-81
2021/11/01 16:52:21;;;;;;;3.53;3.23;;;11.10;99.90;;;;;;5076993;28;20450;-81
2021/11/01 16:54:51;;;;;;;6.17;4.60;;;11.00;99.90;;;;;;5079171;28;20449;-79
2021/11/01 16:57:21;;;;;;;4.53;4.13;;;11.00;99.90;;;;;;5066722;28;20486;-82
2021/11/01 16:59:57;;;;;;;5.27;4.60;;;11.00;99.90;;;;;;5060174;28;20531;-82
2021/11/01 17:02:38;;;;;;;5.20;4.33;;;10.90;99.90;;;;;;5061521;28;20966;-81
2021/11/01 17:05:16;;;;;;;4.10;3.80;;;10.90;99.90;;;;;;5065963;28;20494;-82
2021/11/01 17:08:11;;;;;;;4.05;3.75;;;10.90;99.90;;;;;;5072868;28;20435;-81
2021/11/01 17:21:50;;;;;;;4.40;4.00;;;10.60;99.90;;;;;;5067985;28;20279;-81
2021/11/01 17:24:23;;;;;;;6.70;5.37;;;10.60;99.90;;;;;;5071640;28;20494;-82
2021/11/01 17:27:14;;;;;;;8.70;4.30;;;10.50;99.90;;;;;;5082224;28;20459;-81
2021/11/01 17:35:31;;;;;;;3.75;3.50;;;10.40;99.90;;;;;;5080884;28;20265;-82
2021/11/01 18:37:18;;;;;;;3.53;3.23;;;10.00;99.90;;;;;;5071735;28;20536;-80
2021/11/01 18:39:59;;;;;;;4.07;3.78;;;10.00;99.90;;;;;;5081426;28;20476;-81
2021/11/01 18:42:42;;;;;;;3.53;3.23;;;10.00;99.90;;;;;;5061906;28;20227;-80
2021/11/01 18:50:58;;;;;;;3.80;3.50;;;9.90;99.90;;;;;;5067770;28;20421;-80
2021/11/01 18:53:34;;;;;;;3.13;2.90;;;9.90;99.90;;;;;;5075317;28;20499;-80
2021/11/01 18:56:04;;;;;;;4.32;3.95;;;9.80;99.90;;;;;;5073672;28;20230;-79
2021/11/01 18:58:33;;;;;;;3.30;3.00;;;9.80;99.90;;;;;;5079154;28;20225;-81
2021/11/01 19:01:02;;;;;;;3.72;3.20;;;9.80;99.90;;;;;;5078312;28;20206;-79
2021/11/01 19:03:35;;;;;;;4.18;3.05;;;9.70;99.90;;;;;;5078244;28;20281;-80
2021/11/01 19:06:09;;;;;;;4.00;3.55;;;9.60;99.90;;;;;;5072415;28;20216;-81
2021/11/01 19:08:48;;;;;;;3.38;3.08;;;9.50;99.90;;;;;;5069030;28;20641;-81
2021/11/01 20:04:10;;;;;;;3.80;3.45;;;7.80;99.90;;;;;;5071885;28;20197;-79
2021/11/01 20:09:52;;;;;;;4.00;3.67;;;7.90;99.90;;;;;;5041673;28;20248;-79
2021/11/01 20:12:33;;;;;;;3.25;2.97;;;7.90;99.90;;;;;;5069893;28;20546;-79
2021/11/01 21:25:02;;;;;;;4.35;4.05;;;7.40;99.90;;;;;;5061580;28;20227;-80
2021/11/01 21:27:30;;;;;;;4.88;3.50;;;7.40;99.90;;;;;;5074668;28;20848;-80
2021/11/01 21:29:58;;;;;;;3.70;3.50;;;7.30;99.90;;;;;;5056539;28;20205;-80
2021/11/01 21:32:25;;;;;;;4.35;4.00;;;7.30;99.90;;;;;;5063441;28;20201;-80
2021/11/01 21:34:58;;;;;;;3.72;3.42;;;7.30;99.90;;;;;;5069536;28;20205;-80
2021/11/01 21:37:25;;;;;;;3.70;3.38;;;7.20;99.90;;;;;;5067575;28;20228;-80
2021/11/01 21:39:53;;;;;;;4.63;4.15;;;7.30;99.90;;;;;;5068798;28;20255;-79
2021/11/01 21:42:20;;;;;;;4.80;4.25;;;7.40;99.90;;;;;;5054173;28;20206;-80
2021/11/01 21:44:48;;;;;;;3.78;3.47;;;7.50;99.90;;;;;;5055263;28;20558;-80
2021/11/01 21:47:16;;;;;;;4.28;3.95;;;7.50;99.90;;;;;;5054111;28;20216;-80
2021/11/01 21:49:43;;;;;;;4.47;4.10;;;7.50;99.90;;;;;;5061730;28;20212;-79
2021/11/01 21:52:12;;;;;;;5.15;3.55;;;7.50;99.90;;;;;;5073926;28;20201;-78
2021/11/01 21:54:43;;;;;;;4.22;3.80;;;7.50;99.90;;;;;;5062537;28;20205;-80
2021/11/01 21:57:14;;;;;;;5.90;3.95;;;7.50;99.90;;;;;;5055921;28;20221;-80
2021/11/01 22:00:06;;;;;;;4.20;3.85;;;7.50;99.90;;;;;;5067488;28;20608;-78
2021/11/01 22:21:52;;;;;;;4.43;4.03;;;7.20;99.90;;;;;;5055625;28;20193;-80
2021/11/01 22:24:24;;;;;;;5.70;4.75;;;7.20;99.90;;;;;;5058854;28;20195;-80
2021/11/01 22:31:58;;;;;;;5.30;4.80;;;7.20;99.90;;;;;;5061666;28;20197;-78
2021/11/01 22:33:09;;;;;;;4.07;3.78;;;7.20;99.90;;;;;;5060159;28;20278;-81
2021/11/01 22:41:13;;;;;;;7.25;4.32;;;6.90;99.90;;;;;;5058775;28;20292;-80
2021/11/01 22:44:06;;;;;;;4.80;4.40;;;6.80;99.90;;;;;;5058677;28;20200;-79
2021/11/01 22:57:35;;;;;;;6.00;4.90;;;6.90;99.90;;;;;;5070109;28;20262;-79
2021/11/01 23:00:13;;;;;;;5.30;4.80;;;7.00;99.90;;;;;;5063207;28;20293;-79
2021/11/01 23:02:40;;;;;;;5.72;5.22;;;7.10;99.90;;;;;;5062877;28;20251;-80
2021/11/01 23:05:17;;;;;;;7.30;6.60;;;7.20;99.90;;;;;;5067270;28;20728;-79
2021/11/01 23:32:24;;;;;;;5.05;4.55;;;7.70;99.90;;;;;;5059457;28;20200;-80
2021/11/01 23:34:51;;;;;;;6.43;4.82;;;7.80;99.90;;;;;;5057523;28;20208;-79
2021/11/01 23:37:19;;;;;;;5.88;4.35;;;7.90;99.90;;;;;;5056917;28;20206;-80
2021/11/01 23:39:47;;;;;;;4.80;4.40;;;7.90;99.90;;;;;;5061035;28;20245;-78